Share

Ehrhardt, SC

KQ4WH, Skunkworks (KSCSMOAK1) Elev 121 ft | 33.09 °N, 80.81 °W | Change Station

Current weather conditions updated 8 seconds ago

Clear
Clear
55.7 °F
Feels Like 55.7 °F
N
0.0
Wind Variable Wind from NNE
Gusts 0.0 mph
Sunrise 6:51 AM
Sunset 7:56 PM
Moon Waning Gibbous

Tomorrow is forecast to be Cooler than today. Rain developing during the afternoon.

Pressure 30.37 in
Visibility 10.0 miles
Clouds Clear
Dew Point 50 °F
Humidity 81%
Rainfall 0.00 in
Snow Depth Not available.
UV 0 out of 16
Pollen 10.00 out of 12
Air Quality Not available.
Flu Activity Local Activity
METAR KRBW 180055Z AUTO 10003KT 10SM CLR 15/11 A3037 RMK AO2

More Conditions Fewer Conditions

Pressure 30.37 in
Visibility 10.0 miles
Clouds Clear
Dew Point 50 °F
Humidity 81%
Rainfall 0.00 in
Snow Depth Not available.
UV 0 out of 16
Pollen 10.00 out of 12
Air Quality Not available.
Flu Activity Local Activity
METAR KRBW 180055Z AUTO 10003KT 10SM CLR 15/11 A3037 RMK AO2

More Conditions Fewer Conditions

10-Day Forecast

Almanac

Astronomy

Apr. 17, 2014 Rise Set
Actual Time 6:51 AM EDT 7:56 PM EDT
Civil Twilight 6:26 AM EDT 8:21 PM EDT
Nautical Twilight 5:55 AM EDT 8:51 PM EDT
Astronomical Twilight 5:24 AM EDT 9:23 PM EDT
Moon 10:34 PM EDT (4/17) 8:27 AM EDT (4/17)
Length of Visible Light 13h 55m
Length of Day
13h 04m
Tomorrow will be 1m 56s longer.
Waning Gibbous, 91% of the Moon is Illuminated
Today
Waning Gibbous
Apr 22
Last Quarter
Apr 29
New
May 6
First Quarter
May 14
Full

Today's Extremes

State Highs State Lows

Community

  • Morning Light
    Morning Light
  • New Day
    New Day
  • Lake Michigan Sunrise
    Lake Michigan Sunrise
  • sunset from izmir, narlıdere
    sunset from izmir, narlıdere
  • oregon cherry
    oregon cherry

WunderPhotos

Upload Photos

1,702,197 photos uploaded!

WunderBlogs® & News

Nearby

Snow Depth

Station Depth Elevation
No new snow has been reported.

Coastal Water Temperatures

Place Temperature
No Stations Reporting

Earthquake Activity

City Distance Mag. Time & Date
No recent earthquake activity has been reported nearby.
Minimum magnitude displayed is 2.5.

Nearby Weather Stations

Station Location Temp. Dew Point Humidity Wind Precip. Elev Updated Type
KQ4WH, Skunkworks, Smoaks, SC 55.7 °F 50 °F 81% NNE  at  0.0 mph 0.00 in / hr 121 ft 9:02 PM EDT Rapid Fire
Joe Miley Road, Brunson, SC 53.6 °F 49 °F 83% North  at  0.0 mph - / hr 98 ft 8:57 PM EDT Normal

Show More Stations Show Fewer Stations

What do you think?

We're not finished. Please let us know what you like, what you don't like, and what you are still missing.